Shirahamamaru — JG4872 — position and weather

sailwx.info

Track history (hours):
 
Tides and Currents Weather Stations Pressure Air Temp Water Temp Dewpoint Dewpoint Depression Visibility Wind Speed Wind Dir Waves Ship Positions

Shirahamamaru

Last reported at 2017-Feb-24 11:08 UTC. Time now 2017-Feb-24 17:47 UTC.
Position N 35°13' E 139°43'.

Length 79 m; draft 3.2 m.

Type: Passenger vessel. MMSI: 431000239.

Date/timePositionNaut miles runAvg speedWind from/ knotsBaromVisibWave heightAir tempDewpointWater temp
2017-Feb-24 11:08N 35°13' E 139°43'6 9.8
2017-Feb-24 10:33N 35°10' E 139°49'3 3.1
2017-Feb-24 09:33N 35°12' E 139°46'1 1.3
2017-Feb-24 08:33N 35°11' E 139°47'3 2.5
2017-Feb-24 07:33N 35°13' E 139°44'3 2.7
2017-Feb-24 06:33N 35°11' E 139°47'2 1.9
2017-Feb-24 05:33N 35°10' E 139°49'6 5.9
2017-Feb-24 04:33N 35°13' E 139°43'0 0.2
2017-Feb-24 03:33N 35°13' E 139°43'6 5.9
2017-Feb-24 02:33N 35°10' E 139°49'4 4.2
2017-Feb-24 01:33N 35°13' E 139°45'2 2.1
2017-Feb-24 00:33N 35°11' E 139°47'2 2.4
2017-Feb-23 23:33N 35°13' E 139°45'2 1.8
2017-Feb-23 22:33N 35°12' E 139°47'2 2.0
2017-Feb-23 21:33N 35°13' E 139°44'1 0.0
2017-Feb-22 11:31N 35°13' E 139°43'6 5.9
2017-Feb-22 10:33N 35°10' E 139°49'3 3.1
2017-Feb-22 09:33N 35°12' E 139°46'1 1.4
2017-Feb-22 08:32N 35°11' E 139°47'2 2.3
2017-Feb-22 07:33N 35°13' E 139°45'2 2.0
2017-Feb-22 06:33N 35°11' E 139°47'2 2.2
2017-Feb-22 05:33N 35°10' E 139°49'6 5.8
2017-Feb-22 04:33N 35°13' E 139°43'0 0.3
2017-Feb-22 03:33N 35°13' E 139°43'6 5.8
2017-Feb-22 02:33N 35°10' E 139°49'4 4.2
2017-Feb-22 01:33N 35°13' E 139°45'2 2.1
2017-Feb-22 00:33N 35°12' E 139°47'2 2.2
2017-Feb-21 23:33N 35°13' E 139°45'2 1.7
2017-Feb-21 22:33N 35°11' E 139°46'2 1.5
2017-Feb-21 21:33N 35°13' E 139°45'2 0.2
2017-Feb-21 11:08N 35°13' E 139°43'6 9.7
2017-Feb-21 10:32N 35°10' E 139°49'3 3.3
2017-Feb-21 09:33N 35°12' E 139°46'1 1.2
2017-Feb-21 08:33N 35°11' E 139°47'2 2.0
2017-Feb-21 07:33N 35°12' E 139°45'2 2.0
2017-Feb-21 06:33N 35°11' E 139°47'2 2.0
2017-Feb-21 05:33N 35°10' E 139°49'6 5.7
2017-Feb-21 04:31N 35°13' E 139°43'1 0.8
2017-Feb-21 03:33N 35°13' E 139°44'5 5.1
2017-Feb-21 02:33N 35°10' E 139°49'4 4.3
2017-Feb-21 01:33N 35°13' E 139°45'2 2.3
2017-Feb-21 00:33N 35°11' E 139°47'3 2.5
2017-Feb-20 23:32N 35°13' E 139°45'2 1.9
2017-Feb-20 22:33N 35°12' E 139°47'2 2.2
2017-Feb-20 21:34N 35°13' E 139°44'1 0.0
2017-Feb-19 11:33N 35°13' E 139°43'6 5.7
2017-Feb-19 10:33N 35°10' E 139°49'3 3.2
2017-Feb-19 09:34N 35°13' E 139°46'2 2.0
2017-Feb-19 08:33N 35°11' E 139°48'3 2.9
2017-Feb-19 07:33N 35°13' E 139°45'3 2.9
2017-Feb-19 06:33N 35°11' E 139°48'3 2.9
2017-Feb-19 05:33N 35°13' E 139°45'2 1.6
2017-Feb-19 04:33N 35°12' E 139°46'0 0.5
2017-Feb-19 03:33N 35°12' E 139°46'1 1.2
2017-Feb-19 02:33N 35°11' E 139°47'3 2.5
2017-Feb-19 01:33N 35°13' E 139°44'3 2.7
2017-Feb-19 00:33N 35°11' E 139°47'2 2.4
2017-Feb-18 23:33N 35°13' E 139°45'2 1.6
2017-Feb-18 22:33N 35°11' E 139°46'2 1.9
2017-Feb-18 21:33N 35°13' E 139°44'1 0.1
2017-Feb-18 11:15N 35°13' E 139°43'6 8.1
2017-Feb-18 10:33N 35°10' E 139°49'3 3.1
2017-Feb-18 09:33N 35°12' E 139°46'1 1.5
2017-Feb-18 08:33N 35°11' E 139°47'2 2.1
2017-Feb-18 07:33N 35°12' E 139°45'2 1.9
2017-Feb-18 06:33N 35°12' E 139°47'2 2.2
2017-Feb-18 05:33N 35°13' E 139°45'1 1.3
2017-Feb-18 04:33N 35°12' E 139°46'0 0.3
2017-Feb-18 03:33N 35°12' E 139°46'1 1.1
2017-Feb-18 02:34N 35°11' E 139°47'2 2.3
2017-Feb-18 01:33N 35°13' E 139°45'2 2.5
2017-Feb-18 00:33N 35°11' E 139°47'2 2.2
2017-Feb-17 23:33N 35°13' E 139°45'1 1.2
2017-Feb-17 22:33N 35°12' E 139°46'2 2.0
2017-Feb-17 21:33N 35°13' E 139°44'1 0.0
2017-Feb-16 11:07N 35°13' E 139°43'610.2
2017-Feb-16 10:33N 35°10' E 139°49'3 3.3
2017-Feb-16 09:32N 35°13' E 139°46'1 1.4
2017-Feb-16 08:33N 35°12' E 139°47'2 2.4
2017-Feb-16 07:32N 35°13' E 139°44'3 2.6
2017-Feb-16 06:33N 35°12' E 139°47'2 2.0
2017-Feb-16 05:30N 35°10' E 139°49'6 6.2
2017-Feb-16 04:33N 35°13' E 139°43'1 0.8
2017-Feb-16 03:28N 35°13' E 139°44'5 5.5
2017-Feb-16 02:33N 35°10' E 139°49'5 4.6
2017-Feb-16 01:32N 35°13' E 139°44'3 2.8
2017-Feb-16 00:33N 35°11' E 139°47'3 2.6
2017-Feb-15 23:32N 35°13' E 139°44'1 1.4
2017-Feb-15 22:33N 35°12' E 139°46'1 1.3
2017-Feb-15 21:33N 35°13' E 139°44'1 0.1
2017-Feb-15 11:12N 35°13' E 139°43'6 8.9
2017-Feb-15 10:33N 35°10' E 139°49'4 3.5
2017-Feb-15 09:34N 35°13' E 139°46'2 1.8
2017-Feb-15 08:32N 35°12' E 139°47'3 2.8
2017-Feb-15 07:31N 35°13' E 139°44'3 2.7
2017-Feb-15 06:33N 35°12' E 139°47'2 2.1
2017-Feb-15 05:32N 35°10' E 139°49'6 5.9
2017-Feb-15 04:33N 35°13' E 139°43'4 3.5
2017-Feb-15 03:33N 35°11' E 139°47'4 3.5
2017-Feb-15 02:33N 35°13' E 139°43'5 5.0
2017-Feb-15 01:33N 35°11' E 139°48'5 4.7
2017-Feb-15 00:29N 35°13' E 139°43'  
Track history (hours):
 
Tides and Currents Weather Stations Pressure Air Temp Water Temp Dewpoint Dewpoint Depression Visibility Wind Speed Wind Dir Waves Ship Positions

Shirahamamaru

Last reported at 2017-Feb-24 11:08 UTC. Time now 2017-Feb-24 17:47 UTC.
Position N 35°13' E 139°43'.

Length 79 m; draft 3.2 m.

Type: Passenger vessel. MMSI: 431000239.

Date/timePositionNaut miles runAvg speedWind from/ knotsBaromVisibWave heightAir tempDewpointWater temp
2017-Feb-24 11:08N 35°13' E 139°43'6 9.8
2017-Feb-24 10:33N 35°10' E 139°49'3 3.1
2017-Feb-24 09:33N 35°12' E 139°46'1 1.3
2017-Feb-24 08:33N 35°11' E 139°47'3 2.5
2017-Feb-24 07:33N 35°13' E 139°44'3 2.7
2017-Feb-24 06:33N 35°11' E 139°47'2 1.9
2017-Feb-24 05:33N 35°10' E 139°49'6 5.9
2017-Feb-24 04:33N 35°13' E 139°43'0 0.2
2017-Feb-24 03:33N 35°13' E 139°43'6 5.9
2017-Feb-24 02:33N 35°10' E 139°49'4 4.2
2017-Feb-24 01:33N 35°13' E 139°45'2 2.1
2017-Feb-24 00:33N 35°11' E 139°47'2 2.4
2017-Feb-23 23:33N 35°13' E 139°45'2 1.8
2017-Feb-23 22:33N 35°12' E 139°47'2 2.0
2017-Feb-23 21:33N 35°13' E 139°44'1 0.0
2017-Feb-22 11:31N 35°13' E 139°43'6 5.9
2017-Feb-22 10:33N 35°10' E 139°49'3 3.1
2017-Feb-22 09:33N 35°12' E 139°46'1 1.4
2017-Feb-22 08:32N 35°11' E 139°47'2 2.3
2017-Feb-22 07:33N 35°13' E 139°45'2 2.0
2017-Feb-22 06:33N 35°11' E 139°47'2 2.2
2017-Feb-22 05:33N 35°10' E 139°49'6 5.8
2017-Feb-22 04:33N 35°13' E 139°43'0 0.3
2017-Feb-22 03:33N 35°13' E 139°43'6 5.8
2017-Feb-22 02:33N 35°10' E 139°49'4 4.2
2017-Feb-22 01:33N 35°13' E 139°45'2 2.1
2017-Feb-22 00:33N 35°12' E 139°47'2 2.2
2017-Feb-21 23:33N 35°13' E 139°45'2 1.7
2017-Feb-21 22:33N 35°11' E 139°46'2 1.5
2017-Feb-21 21:33N 35°13' E 139°45'2 0.2
2017-Feb-21 11:08N 35°13' E 139°43'6 9.7
2017-Feb-21 10:32N 35°10' E 139°49'3 3.3
2017-Feb-21 09:33N 35°12' E 139°46'1 1.2
2017-Feb-21 08:33N 35°11' E 139°47'2 2.0
2017-Feb-21 07:33N 35°12' E 139°45'2 2.0
2017-Feb-21 06:33N 35°11' E 139°47'2 2.0
2017-Feb-21 05:33N 35°10' E 139°49'6 5.7
2017-Feb-21 04:31N 35°13' E 139°43'1 0.8
2017-Feb-21 03:33N 35°13' E 139°44'5 5.1
2017-Feb-21 02:33N 35°10' E 139°49'4 4.3
2017-Feb-21 01:33N 35°13' E 139°45'2 2.3
2017-Feb-21 00:33N 35°11' E 139°47'3 2.5
2017-Feb-20 23:32N 35°13' E 139°45'2 1.9
2017-Feb-20 22:33N 35°12' E 139°47'2 2.2
2017-Feb-20 21:34N 35°13' E 139°44'1 0.0
2017-Feb-19 11:33N 35°13' E 139°43'6 5.7
2017-Feb-19 10:33N 35°10' E 139°49'3 3.2
2017-Feb-19 09:34N 35°13' E 139°46'2 2.0
2017-Feb-19 08:33N 35°11' E 139°48'3 2.9
2017-Feb-19 07:33N 35°13' E 139°45'3 2.9
2017-Feb-19 06:33N 35°11' E 139°48'3 2.9
2017-Feb-19 05:33N 35°13' E 139°45'2 1.6
2017-Feb-19 04:33N 35°12' E 139°46'0 0.5
2017-Feb-19 03:33N 35°12' E 139°46'1 1.2
2017-Feb-19 02:33N 35°11' E 139°47'3 2.5
2017-Feb-19 01:33N 35°13' E 139°44'3 2.7
2017-Feb-19 00:33N 35°11' E 139°47'2 2.4
2017-Feb-18 23:33N 35°13' E 139°45'2 1.6
2017-Feb-18 22:33N 35°11' E 139°46'2 1.9
2017-Feb-18 21:33N 35°13' E 139°44'1 0.1
2017-Feb-18 11:15N 35°13' E 139°43'6 8.1
2017-Feb-18 10:33N 35°10' E 139°49'3 3.1
2017-Feb-18 09:33N 35°12' E 139°46'1 1.5
2017-Feb-18 08:33N 35°11' E 139°47'2 2.1
2017-Feb-18 07:33N 35°12' E 139°45'2 1.9
2017-Feb-18 06:33N 35°12' E 139°47'2 2.2
2017-Feb-18 05:33N 35°13' E 139°45'1 1.3
2017-Feb-18 04:33N 35°12' E 139°46'0 0.3
2017-Feb-18 03:33N 35°12' E 139°46'1 1.1
2017-Feb-18 02:34N 35°11' E 139°47'2 2.3
2017-Feb-18 01:33N 35°13' E 139°45'2 2.5
2017-Feb-18 00:33N 35°11' E 139°47'2 2.2
2017-Feb-17 23:33N 35°13' E 139°45'1 1.2
2017-Feb-17 22:33N 35°12' E 139°46'2 2.0
2017-Feb-17 21:33N 35°13' E 139°44'1 0.0
2017-Feb-16 11:07N 35°13' E 139°43'610.2
2017-Feb-16 10:33N 35°10' E 139°49'3 3.3
2017-Feb-16 09:32N 35°13' E 139°46'1 1.4
2017-Feb-16 08:33N 35°12' E 139°47'2 2.4
2017-Feb-16 07:32N 35°13' E 139°44'3 2.6
2017-Feb-16 06:33N 35°12' E 139°47'2 2.0
2017-Feb-16 05:30N 35°10' E 139°49'6 6.2
2017-Feb-16 04:33N 35°13' E 139°43'1 0.8
2017-Feb-16 03:28N 35°13' E 139°44'5 5.5
2017-Feb-16 02:33N 35°10' E 139°49'5 4.6
2017-Feb-16 01:32N 35°13' E 139°44'3 2.8
2017-Feb-16 00:33N 35°11' E 139°47'3 2.6
2017-Feb-15 23:32N 35°13' E 139°44'1 1.4
2017-Feb-15 22:33N 35°12' E 139°46'1 1.3
2017-Feb-15 21:33N 35°13' E 139°44'1 0.1
2017-Feb-15 11:12N 35°13' E 139°43'6 8.9
2017-Feb-15 10:33N 35°10' E 139°49'4 3.5
2017-Feb-15 09:34N 35°13' E 139°46'2 1.8
2017-Feb-15 08:32N 35°12' E 139°47'3 2.8
2017-Feb-15 07:31N 35°13' E 139°44'3 2.7
2017-Feb-15 06:33N 35°12' E 139°47'2 2.1
2017-Feb-15 05:32N 35°10' E 139°49'6 5.9
2017-Feb-15 04:33N 35°13' E 139°43'4 3.5
2017-Feb-15 03:33N 35°11' E 139°47'4 3.5
2017-Feb-15 02:33N 35°13' E 139°43'5 5.0
2017-Feb-15 01:33N 35°11' E 139°48'5 4.7
2017-Feb-15 00:29N 35°13' E 139°43'  

Dump ship's entire track history